sensor_id;sensor_type;location;lat;lon;timestamp;P1;durP1;ratioP1;P2;durP2;ratioP2
15383;SDS011;7790;53.022;12.968;2023-12-29T00:03:24;1.73;;;0.90;;
15383;SDS011;7790;53.022;12.968;2023-12-29T00:07:25;2.70;;;0.93;;
15383;SDS011;7790;53.022;12.968;2023-12-29T00:11:26;3.73;;;0.80;;
15383;SDS011;7790;53.022;12.968;2023-12-29T00:15:27;4.27;;;0.97;;
15383;SDS011;7790;53.022;12.968;2023-12-29T00:19:27;0.80;;;0.70;;
15383;SDS011;7790;53.022;12.968;2023-12-29T00:23:28;2.13;;;0.83;;
15383;SDS011;7790;53.022;12.968;2023-12-29T00:27:29;1.40;;;0.90;;
15383;SDS011;7790;53.022;12.968;2023-12-29T00:31:30;0.73;;;0.63;;
15383;SDS011;7790;53.022;12.968;2023-12-29T00:35:31;1.10;;;0.60;;
15383;SDS011;7790;53.022;12.968;2023-12-29T00:39:32;1.33;;;0.60;;
15383;SDS011;7790;53.022;12.968;2023-12-29T00:43:38;0.83;;;0.70;;
15383;SDS011;7790;53.022;12.968;2023-12-29T00:47:39;2.80;;;0.63;;
15383;SDS011;7790;53.022;12.968;2023-12-29T00:51:40;1.63;;;0.70;;
15383;SDS011;7790;53.022;12.968;2023-12-29T00:55:43;1.27;;;0.70;;
15383;SDS011;7790;53.022;12.968;2023-12-29T00:59:46;2.10;;;0.97;;
15383;SDS011;7790;53.022;12.968;2023-12-29T01:03:47;0.60;;;0.57;;
15383;SDS011;7790;53.022;12.968;2023-12-29T01:07:48;1.07;;;0.60;;
15383;SDS011;7790;53.022;12.968;2023-12-29T01:11:49;1.57;;;0.70;;
15383;SDS011;7790;53.022;12.968;2023-12-29T01:15:49;0.70;;;0.70;;
15383;SDS011;7790;53.022;12.968;2023-12-29T01:19:50;1.67;;;0.73;;
15383;SDS011;7790;53.022;12.968;2023-12-29T01:23:51;0.60;;;0.60;;
15383;SDS011;7790;53.022;12.968;2023-12-29T01:27:52;0.60;;;0.60;;
15383;SDS011;7790;53.022;12.968;2023-12-29T01:31:53;0.73;;;0.73;;
15383;SDS011;7790;53.022;12.968;2023-12-29T01:35:53;1.27;;;0.60;;
15383;SDS011;7790;53.022;12.968;2023-12-29T01:39:54;0.50;;;0.50;;
15383;SDS011;7790;53.022;12.968;2023-12-29T01:48:02;0.40;;;0.40;;
15383;SDS011;7790;53.022;12.968;2023-12-29T01:52:03;2.77;;;0.80;;
15383;SDS011;7790;53.022;12.968;2023-12-29T01:56:05;2.37;;;0.60;;
15383;SDS011;7790;53.022;12.968;2023-12-29T02:00:07;2.57;;;0.70;;
15383;SDS011;7790;53.022;12.968;2023-12-29T02:04:12;2.33;;;0.60;;
15383;SDS011;7790;53.022;12.968;2023-12-29T02:08:14;0.50;;;0.37;;
15383;SDS011;7790;53.022;12.968;2023-12-29T02:12:15;2.73;;;0.83;;
15383;SDS011;7790;53.022;12.968;2023-12-29T02:16:22;2.37;;;0.70;;
15383;SDS011;7790;53.022;12.968;2023-12-29T02:20:42;1.07;;;0.70;;
15383;SDS011;7790;53.022;12.968;2023-12-29T02:24:50;0.50;;;0.50;;
15383;SDS011;7790;53.022;12.968;2023-12-29T02:28:53;2.53;;;0.50;;
15383;SDS011;7790;53.022;12.968;2023-12-29T02:33:01;1.47;;;0.53;;
15383;SDS011;7790;53.022;12.968;2023-12-29T02:37:05;0.70;;;0.50;;
15383;SDS011;7790;53.022;12.968;2023-12-29T02:41:08;1.40;;;0.67;;
15383;SDS011;7790;53.022;12.968;2023-12-29T02:45:10;0.90;;;0.60;;
15383;SDS011;7790;53.022;12.968;2023-12-29T02:49:11;0.60;;;0.50;;
15383;SDS011;7790;53.022;12.968;2023-12-29T02:53:13;0.97;;;0.50;;
15383;SDS011;7790;53.022;12.968;2023-12-29T02:57:14;0.50;;;0.50;;
15383;SDS011;7790;53.022;12.968;2023-12-29T03:01:14;1.87;;;0.70;;
15383;SDS011;7790;53.022;12.968;2023-12-29T03:05:15;0.90;;;0.53;;
15383;SDS011;7790;53.022;12.968;2023-12-29T03:09:17;0.40;;;0.40;;
15383;SDS011;7790;53.022;12.968;2023-12-29T03:13:18;0.80;;;0.70;;
15383;SDS011;7790;53.022;12.968;2023-12-29T03:17:18;1.50;;;0.70;;
15383;SDS011;7790;53.022;12.968;2023-12-29T03:21:19;2.20;;;0.63;;
15383;SDS011;7790;53.022;12.968;2023-12-29T03:25:21;1.70;;;0.60;;
15383;SDS011;7790;53.022;12.968;2023-12-29T03:29:24;0.80;;;0.60;;
15383;SDS011;7790;53.022;12.968;2023-12-29T03:33:25;0.80;;;0.53;;
15383;SDS011;7790;53.022;12.968;2023-12-29T03:37:26;2.07;;;0.60;;
15383;SDS011;7790;53.022;12.968;2023-12-29T03:41:26;0.73;;;0.67;;
15383;SDS011;7790;53.022;12.968;2023-12-29T03:45:27;0.90;;;0.60;;
15383;SDS011;7790;53.022;12.968;2023-12-29T03:49:28;1.03;;;0.40;;
15383;SDS011;7790;53.022;12.968;2023-12-29T03:53:29;0.70;;;0.50;;
15383;SDS011;7790;53.022;12.968;2023-12-29T03:57:30;1.03;;;0.70;;
15383;SDS011;7790;53.022;12.968;2023-12-29T04:01:33;0.60;;;0.60;;
15383;SDS011;7790;53.022;12.968;2023-12-29T04:05:34;0.53;;;0.50;;
15383;SDS011;7790;53.022;12.968;2023-12-29T04:09:34;0.43;;;0.40;;
15383;SDS011;7790;53.022;12.968;2023-12-29T04:13:35;0.93;;;0.50;;
15383;SDS011;7790;53.022;12.968;2023-12-29T04:17:36;1.30;;;0.40;;
15383;SDS011;7790;53.022;12.968;2023-12-29T04:21:37;0.60;;;0.50;;
15383;SDS011;7790;53.022;12.968;2023-12-29T04:25:38;0.80;;;0.50;;
15383;SDS011;7790;53.022;12.968;2023-12-29T04:29:40;0.70;;;0.50;;
15383;SDS011;7790;53.022;12.968;2023-12-29T04:33:41;0.53;;;0.33;;
15383;SDS011;7790;53.022;12.968;2023-12-29T04:37:45;0.67;;;0.50;;
15383;SDS011;7790;53.022;12.968;2023-12-29T04:41:46;2.70;;;0.60;;
15383;SDS011;7790;53.022;12.968;2023-12-29T04:45:47;0.40;;;0.40;;
15383;SDS011;7790;53.022;12.968;2023-12-29T04:49:48;0.87;;;0.60;;
15383;SDS011;7790;53.022;12.968;2023-12-29T04:53:49;0.73;;;0.60;;
15383;SDS011;7790;53.022;12.968;2023-12-29T04:57:49;0.77;;;0.57;;
15383;SDS011;7790;53.022;12.968;2023-12-29T05:01:50;0.40;;;0.40;;
15383;SDS011;7790;53.022;12.968;2023-12-29T05:05:51;1.23;;;0.60;;
15383;SDS011;7790;53.022;12.968;2023-12-29T05:09:53;0.30;;;0.30;;
15383;SDS011;7790;53.022;12.968;2023-12-29T05:13:53;0.53;;;0.53;;
15383;SDS011;7790;53.022;12.968;2023-12-29T05:17:54;0.30;;;0.30;;
15383;SDS011;7790;53.022;12.968;2023-12-29T05:21:55;0.60;;;0.60;;
15383;SDS011;7790;53.022;12.968;2023-12-29T05:25:56;4.00;;;0.63;;
15383;SDS011;7790;53.022;12.968;2023-12-29T05:29:57;0.57;;;0.57;;
15383;SDS011;7790;53.022;12.968;2023-12-29T05:33:58;0.83;;;0.40;;
15383;SDS011;7790;53.022;12.968;2023-12-29T05:37:59;3.37;;;0.60;;
15383;SDS011;7790;53.022;12.968;2023-12-29T05:41:59;0.50;;;0.50;;
15383;SDS011;7790;53.022;12.968;2023-12-29T05:46:00;1.30;;;0.40;;
15383;SDS011;7790;53.022;12.968;2023-12-29T05:50:01;1.50;;;0.57;;
15383;SDS011;7790;53.022;12.968;2023-12-29T05:54:03;0.70;;;0.50;;
15383;SDS011;7790;53.022;12.968;2023-12-29T05:58:04;1.70;;;0.67;;
15383;SDS011;7790;53.022;12.968;2023-12-29T06:02:05;0.63;;;0.40;;
15383;SDS011;7790;53.022;12.968;2023-12-29T06:06:06;0.90;;;0.60;;
15383;SDS011;7790;53.022;12.968;2023-12-29T06:10:07;1.50;;;0.40;;
15383;SDS011;7790;53.022;12.968;2023-12-29T06:14:09;2.83;;;0.60;;
15383;SDS011;7790;53.022;12.968;2023-12-29T06:18:10;0.50;;;0.50;;
15383;SDS011;7790;53.022;12.968;2023-12-29T06:22:11;2.30;;;0.53;;
15383;SDS011;7790;53.022;12.968;2023-12-29T06:26:18;0.77;;;0.57;;
15383;SDS011;7790;53.022;12.968;2023-12-29T06:30:20;0.67;;;0.43;;
15383;SDS011;7790;53.022;12.968;2023-12-29T06:34:21;0.47;;;0.37;;
15383;SDS011;7790;53.022;12.968;2023-12-29T06:38:22;0.47;;;0.47;;
15383;SDS011;7790;53.022;12.968;2023-12-29T06:42:23;0.63;;;0.60;;
15383;SDS011;7790;53.022;12.968;2023-12-29T06:46:24;1.43;;;0.63;;
15383;SDS011;7790;53.022;12.968;2023-12-29T06:50:25;0.87;;;0.50;;
15383;SDS011;7790;53.022;12.968;2023-12-29T06:54:26;0.90;;;0.50;;
15383;SDS011;7790;53.022;12.968;2023-12-29T06:58:27;3.13;;;0.70;;
15383;SDS011;7790;53.022;12.968;2023-12-29T07:02:28;1.23;;;0.60;;
15383;SDS011;7790;53.022;12.968;2023-12-29T07:06:28;1.47;;;0.60;;
15383;SDS011;7790;53.022;12.968;2023-12-29T07:10:29;4.33;;;0.87;;
15383;SDS011;7790;53.022;12.968;2023-12-29T07:14:30;1.50;;;0.60;;
15383;SDS011;7790;53.022;12.968;2023-12-29T07:18:31;3.53;;;0.87;;
15383;SDS011;7790;53.022;12.968;2023-12-29T07:22:32;4.03;;;0.70;;
15383;SDS011;7790;53.022;12.968;2023-12-29T07:26:33;3.23;;;1.00;;
15383;SDS011;7790;53.022;12.968;2023-12-29T07:30:36;4.00;;;0.90;;
15383;SDS011;7790;53.022;12.968;2023-12-29T07:34:37;7.57;;;1.27;;
15383;SDS011;7790;53.022;12.968;2023-12-29T07:38:38;7.57;;;1.47;;
15383;SDS011;7790;53.022;12.968;2023-12-29T07:42:39;8.40;;;1.17;;
15383;SDS011;7790;53.022;12.968;2023-12-29T07:46:40;3.97;;;1.20;;
15383;SDS011;7790;53.022;12.968;2023-12-29T07:50:41;4.07;;;1.03;;
15383;SDS011;7790;53.022;12.968;2023-12-29T07:54:42;4.93;;;1.43;;
15383;SDS011;7790;53.022;12.968;2023-12-29T07:58:43;3.23;;;1.00;;
15383;SDS011;7790;53.022;12.968;2023-12-29T08:02:44;4.93;;;0.90;;
15383;SDS011;7790;53.022;12.968;2023-12-29T08:06:45;5.33;;;0.93;;
15383;SDS011;7790;53.022;12.968;2023-12-29T08:10:46;5.27;;;0.87;;
15383;SDS011;7790;53.022;12.968;2023-12-29T08:14:47;4.63;;;1.00;;
15383;SDS011;7790;53.022;12.968;2023-12-29T08:18:49;0.97;;;0.63;;
15383;SDS011;7790;53.022;12.968;2023-12-29T08:22:50;1.50;;;0.63;;
15383;SDS011;7790;53.022;12.968;2023-12-29T08:26:51;2.23;;;0.80;;
15383;SDS011;7790;53.022;12.968;2023-12-29T08:30:51;5.00;;;0.60;;
15383;SDS011;7790;53.022;12.968;2023-12-29T08:34:53;7.23;;;0.80;;
15383;SDS011;7790;53.022;12.968;2023-12-29T08:38:54;3.47;;;0.77;;
15383;SDS011;7790;53.022;12.968;2023-12-29T08:42:54;1.73;;;0.70;;
15383;SDS011;7790;53.022;12.968;2023-12-29T08:46:55;3.80;;;0.83;;
15383;SDS011;7790;53.022;12.968;2023-12-29T08:50:56;2.17;;;0.47;;
15383;SDS011;7790;53.022;12.968;2023-12-29T08:54:57;4.17;;;0.80;;
15383;SDS011;7790;53.022;12.968;2023-12-29T08:58:58;2.57;;;0.90;;
15383;SDS011;7790;53.022;12.968;2023-12-29T09:02:58;1.93;;;0.67;;
15383;SDS011;7790;53.022;12.968;2023-12-29T09:06:59;5.03;;;0.80;;
15383;SDS011;7790;53.022;12.968;2023-12-29T09:11:00;3.10;;;0.70;;
15383;SDS011;7790;53.022;12.968;2023-12-29T09:15:02;2.53;;;0.60;;
15383;SDS011;7790;53.022;12.968;2023-12-29T09:19:03;0.77;;;0.67;;
15383;SDS011;7790;53.022;12.968;2023-12-29T09:23:04;0.87;;;0.70;;
15383;SDS011;7790;53.022;12.968;2023-12-29T09:27:04;1.57;;;1.10;;
15383;SDS011;7790;53.022;12.968;2023-12-29T09:31:06;4.40;;;0.80;;
15383;SDS011;7790;53.022;12.968;2023-12-29T09:35:07;2.67;;;0.87;;
15383;SDS011;7790;53.022;12.968;2023-12-29T09:39:07;2.37;;;0.67;;
15383;SDS011;7790;53.022;12.968;2023-12-29T09:43:08;2.23;;;0.80;;
15383;SDS011;7790;53.022;12.968;2023-12-29T09:47:09;2.37;;;0.80;;
15383;SDS011;7790;53.022;12.968;2023-12-29T09:51:16;2.43;;;0.80;;
15383;SDS011;7790;53.022;12.968;2023-12-29T09:55:22;3.20;;;0.83;;
15383;SDS011;7790;53.022;12.968;2023-12-29T09:59:24;1.40;;;0.83;;
15383;SDS011;7790;53.022;12.968;2023-12-29T10:03:26;5.87;;;0.80;;
15383;SDS011;7790;53.022;12.968;2023-12-29T10:07:27;1.97;;;0.60;;
15383;SDS011;7790;53.022;12.968;2023-12-29T10:11:34;1.73;;;0.97;;
15383;SDS011;7790;53.022;12.968;2023-12-29T10:19:55;4.40;;;0.90;;
15383;SDS011;7790;53.022;12.968;2023-12-29T10:24:05;1.87;;;0.70;;
15383;SDS011;7790;53.022;12.968;2023-12-29T10:28:15;1.63;;;0.87;;
15383;SDS011;7790;53.022;12.968;2023-12-29T10:32:17;1.60;;;0.90;;
15383;SDS011;7790;53.022;12.968;2023-12-29T10:36:18;4.93;;;1.00;;
15383;SDS011;7790;53.022;12.968;2023-12-29T10:40:19;5.20;;;1.10;;
15383;SDS011;7790;53.022;12.968;2023-12-29T10:44:21;3.87;;;0.60;;
15383;SDS011;7790;53.022;12.968;2023-12-29T10:48:21;3.20;;;0.60;;
15383;SDS011;7790;53.022;12.968;2023-12-29T10:52:25;5.43;;;1.13;;
15383;SDS011;7790;53.022;12.968;2023-12-29T10:56:26;2.93;;;0.67;;
15383;SDS011;7790;53.022;12.968;2023-12-29T11:00:31;2.17;;;0.60;;
15383;SDS011;7790;53.022;12.968;2023-12-29T11:04:35;3.67;;;0.90;;
15383;SDS011;7790;53.022;12.968;2023-12-29T11:08:36;2.90;;;0.80;;
15383;SDS011;7790;53.022;12.968;2023-12-29T11:12:37;2.93;;;0.97;;
15383;SDS011;7790;53.022;12.968;2023-12-29T11:16:38;3.77;;;0.90;;
15383;SDS011;7790;53.022;12.968;2023-12-29T11:20:41;7.93;;;0.90;;
15383;SDS011;7790;53.022;12.968;2023-12-29T11:24:45;3.27;;;0.80;;
15383;SDS011;7790;53.022;12.968;2023-12-29T11:28:47;1.13;;;0.70;;
15383;SDS011;7790;53.022;12.968;2023-12-29T11:37:05;1.63;;;0.80;;
15383;SDS011;7790;53.022;12.968;2023-12-29T11:45:42;2.50;;;0.87;;
15383;SDS011;7790;53.022;12.968;2023-12-29T11:49:59;0.80;;;0.60;;
15383;SDS011;7790;53.022;12.968;2023-12-29T11:54:02;1.17;;;0.70;;
15383;SDS011;7790;53.022;12.968;2023-12-29T11:58:22;1.13;;;0.80;;
15383;SDS011;7790;53.022;12.968;2023-12-29T12:02:27;0.83;;;0.77;;
15383;SDS011;7790;53.022;12.968;2023-12-29T12:06:38;1.67;;;0.70;;
15383;SDS011;7790;53.022;12.968;2023-12-29T12:10:41;1.03;;;0.80;;
15383;SDS011;7790;53.022;12.968;2023-12-29T12:18:45;3.03;;;0.77;;
15383;SDS011;7790;53.022;12.968;2023-12-29T12:22:48;1.43;;;0.80;;
15383;SDS011;7790;53.022;12.968;2023-12-29T12:26:56;1.87;;;0.70;;
15383;SDS011;7790;53.022;12.968;2023-12-29T12:31:06;2.03;;;0.60;;
15383;SDS011;7790;53.022;12.968;2023-12-29T12:35:15;1.43;;;0.70;;
15383;SDS011;7790;53.022;12.968;2023-12-29T12:39:17;0.83;;;0.63;;
15383;SDS011;7790;53.022;12.968;2023-12-29T12:43:18;1.17;;;0.60;;
15383;SDS011;7790;53.022;12.968;2023-12-29T12:47:27;1.70;;;0.80;;
15383;SDS011;7790;53.022;12.968;2023-12-29T12:51:35;0.93;;;0.70;;
15383;SDS011;7790;53.022;12.968;2023-12-29T12:55:36;2.27;;;0.97;;
15383;SDS011;7790;53.022;12.968;2023-12-29T12:59:38;2.43;;;0.60;;
15383;SDS011;7790;53.022;12.968;2023-12-29T13:03:40;3.63;;;0.67;;
15383;SDS011;7790;53.022;12.968;2023-12-29T13:07:41;3.73;;;0.70;;
15383;SDS011;7790;53.022;12.968;2023-12-29T13:11:41;1.90;;;0.53;;
15383;SDS011;7790;53.022;12.968;2023-12-29T13:15:48;2.97;;;0.80;;
15383;SDS011;7790;53.022;12.968;2023-12-29T13:19:55;3.63;;;0.73;;
15383;SDS011;7790;53.022;12.968;2023-12-29T13:24:02;0.60;;;0.50;;
15383;SDS011;7790;53.022;12.968;2023-12-29T13:28:04;1.03;;;0.67;;
15383;SDS011;7790;53.022;12.968;2023-12-29T13:36:19;3.43;;;0.80;;
15383;SDS011;7790;53.022;12.968;2023-12-29T13:40:47;0.97;;;0.60;;
15383;SDS011;7790;53.022;12.968;2023-12-29T13:45:04;2.20;;;0.60;;
15383;SDS011;7790;53.022;12.968;2023-12-29T13:49:07;1.57;;;0.60;;
15383;SDS011;7790;53.022;12.968;2023-12-29T13:53:15;5.20;;;0.50;;
15383;SDS011;7790;53.022;12.968;2023-12-29T13:57:17;0.70;;;0.40;;
15383;SDS011;7790;53.022;12.968;2023-12-29T14:01:18;2.53;;;0.60;;
15383;SDS011;7790;53.022;12.968;2023-12-29T14:05:23;1.60;;;0.47;;
15383;SDS011;7790;53.022;12.968;2023-12-29T14:09:44;3.27;;;0.60;;
15383;SDS011;7790;53.022;12.968;2023-12-29T14:13:46;0.50;;;0.50;;
15383;SDS011;7790;53.022;12.968;2023-12-29T14:17:50;3.33;;;0.87;;
15383;SDS011;7790;53.022;12.968;2023-12-29T14:21:52;1.90;;;0.93;;
15383;SDS011;7790;53.022;12.968;2023-12-29T14:26:03;3.60;;;0.50;;
15383;SDS011;7790;53.022;12.968;2023-12-29T14:30:16;4.20;;;0.53;;
15383;SDS011;7790;53.022;12.968;2023-12-29T14:34:19;2.93;;;0.70;;
15383;SDS011;7790;53.022;12.968;2023-12-29T14:38:19;0.77;;;0.67;;
15383;SDS011;7790;53.022;12.968;2023-12-29T14:42:21;2.67;;;0.63;;
15383;SDS011;7790;53.022;12.968;2023-12-29T14:46:22;2.20;;;0.90;;
15383;SDS011;7790;53.022;12.968;2023-12-29T14:50:23;4.27;;;0.70;;
15383;SDS011;7790;53.022;12.968;2023-12-29T14:54:24;3.47;;;2.03;;
15383;SDS011;7790;53.022;12.968;2023-12-29T14:58:25;14.37;;;10.17;;
15383;SDS011;7790;53.022;12.968;2023-12-29T15:02:25;16.83;;;11.70;;
15383;SDS011;7790;53.022;12.968;2023-12-29T15:06:26;16.07;;;11.07;;
15383;SDS011;7790;53.022;12.968;2023-12-29T15:10:28;14.97;;;10.20;;
15383;SDS011;7790;53.022;12.968;2023-12-29T15:14:29;14.27;;;10.00;;
15383;SDS011;7790;53.022;12.968;2023-12-29T15:18:30;10.23;;;6.90;;
15383;SDS011;7790;53.022;12.968;2023-12-29T15:22:31;7.57;;;6.13;;
15383;SDS011;7790;53.022;12.968;2023-12-29T15:26:32;7.03;;;5.60;;
15383;SDS011;7790;53.022;12.968;2023-12-29T15:30:33;7.17;;;5.40;;
15383;SDS011;7790;53.022;12.968;2023-12-29T15:34:34;7.37;;;5.60;;
15383;SDS011;7790;53.022;12.968;2023-12-29T15:38:34;6.43;;;4.60;;
15383;SDS011;7790;53.022;12.968;2023-12-29T15:42:35;7.87;;;4.57;;
15383;SDS011;7790;53.022;12.968;2023-12-29T15:46:36;4.77;;;3.87;;
15383;SDS011;7790;53.022;12.968;2023-12-29T15:50:37;4.70;;;4.20;;
15383;SDS011;7790;53.022;12.968;2023-12-29T15:54:37;4.23;;;3.37;;
15383;SDS011;7790;53.022;12.968;2023-12-29T15:58:38;4.33;;;3.37;;
15383;SDS011;7790;53.022;12.968;2023-12-29T16:02:39;3.30;;;3.00;;
15383;SDS011;7790;53.022;12.968;2023-12-29T16:06:40;5.47;;;3.30;;
15383;SDS011;7790;53.022;12.968;2023-12-29T16:10:41;3.73;;;3.07;;
15383;SDS011;7790;53.022;12.968;2023-12-29T16:14:42;3.63;;;2.90;;
15383;SDS011;7790;53.022;12.968;2023-12-29T16:18:43;4.07;;;3.13;;
15383;SDS011;7790;53.022;12.968;2023-12-29T16:22:45;2.83;;;2.20;;
15383;SDS011;7790;53.022;12.968;2023-12-29T16:26:45;3.17;;;2.40;;
15383;SDS011;7790;53.022;12.968;2023-12-29T16:30:46;4.33;;;2.63;;
15383;SDS011;7790;53.022;12.968;2023-12-29T16:34:47;3.73;;;2.40;;
15383;SDS011;7790;53.022;12.968;2023-12-29T16:38:49;3.40;;;2.83;;
15383;SDS011;7790;53.022;12.968;2023-12-29T16:42:51;3.37;;;2.53;;
15383;SDS011;7790;53.022;12.968;2023-12-29T16:46:53;3.50;;;2.60;;
15383;SDS011;7790;53.022;12.968;2023-12-29T16:50:54;3.27;;;2.47;;
15383;SDS011;7790;53.022;12.968;2023-12-29T16:54:54;2.70;;;2.40;;
15383;SDS011;7790;53.022;12.968;2023-12-29T16:58:55;4.60;;;2.50;;
15383;SDS011;7790;53.022;12.968;2023-12-29T17:03:00;3.23;;;2.30;;
15383;SDS011;7790;53.022;12.968;2023-12-29T17:07:01;2.77;;;2.00;;
15383;SDS011;7790;53.022;12.968;2023-12-29T17:11:02;3.80;;;1.97;;
15383;SDS011;7790;53.022;12.968;2023-12-29T17:15:04;4.83;;;2.20;;
15383;SDS011;7790;53.022;12.968;2023-12-29T17:19:05;2.73;;;2.10;;
15383;SDS011;7790;53.022;12.968;2023-12-29T17:23:07;2.77;;;2.10;;
15383;SDS011;7790;53.022;12.968;2023-12-29T17:27:08;4.13;;;2.30;;
15383;SDS011;7790;53.022;12.968;2023-12-29T17:31:08;3.53;;;2.70;;
15383;SDS011;7790;53.022;12.968;2023-12-29T17:35:09;3.13;;;2.43;;
15383;SDS011;7790;53.022;12.968;2023-12-29T17:39:10;3.67;;;2.53;;
15383;SDS011;7790;53.022;12.968;2023-12-29T17:43:11;3.33;;;2.73;;
15383;SDS011;7790;53.022;12.968;2023-12-29T17:47:12;2.97;;;2.33;;
15383;SDS011;7790;53.022;12.968;2023-12-29T17:51:18;3.97;;;2.70;;
15383;SDS011;7790;53.022;12.968;2023-12-29T17:55:24;2.90;;;2.13;;
15383;SDS011;7790;53.022;12.968;2023-12-29T17:59:25;2.37;;;2.17;;
15383;SDS011;7790;53.022;12.968;2023-12-29T18:03:26;2.50;;;2.30;;
15383;SDS011;7790;53.022;12.968;2023-12-29T18:07:27;3.63;;;2.53;;
15383;SDS011;7790;53.022;12.968;2023-12-29T18:11:27;2.30;;;2.10;;
15383;SDS011;7790;53.022;12.968;2023-12-29T18:15:30;2.83;;;2.20;;
15383;SDS011;7790;53.022;12.968;2023-12-29T18:19:32;3.20;;;2.13;;
15383;SDS011;7790;53.022;12.968;2023-12-29T18:23:32;2.10;;;1.90;;
15383;SDS011;7790;53.022;12.968;2023-12-29T18:27:34;3.00;;;1.97;;
15383;SDS011;7790;53.022;12.968;2023-12-29T18:31:41;5.70;;;2.30;;
15383;SDS011;7790;53.022;12.968;2023-12-29T18:35:42;3.13;;;2.40;;
15383;SDS011;7790;53.022;12.968;2023-12-29T18:39:43;5.63;;;1.87;;
15383;SDS011;7790;53.022;12.968;2023-12-29T18:43:46;6.00;;;2.23;;
15383;SDS011;7790;53.022;12.968;2023-12-29T18:47:47;3.80;;;2.33;;
15383;SDS011;7790;53.022;12.968;2023-12-29T18:51:48;4.73;;;2.20;;
15383;SDS011;7790;53.022;12.968;2023-12-29T18:55:51;3.13;;;1.70;;
15383;SDS011;7790;53.022;12.968;2023-12-29T18:59:52;3.67;;;1.83;;
15383;SDS011;7790;53.022;12.968;2023-12-29T19:03:53;5.83;;;1.90;;
15383;SDS011;7790;53.022;12.968;2023-12-29T19:07:54;2.40;;;1.67;;
15383;SDS011;7790;53.022;12.968;2023-12-29T19:11:56;3.33;;;1.80;;
15383;SDS011;7790;53.022;12.968;2023-12-29T19:15:56;3.93;;;1.50;;
15383;SDS011;7790;53.022;12.968;2023-12-29T19:20:00;3.20;;;1.90;;
15383;SDS011;7790;53.022;12.968;2023-12-29T19:24:01;2.67;;;1.63;;
15383;SDS011;7790;53.022;12.968;2023-12-29T19:28:02;2.77;;;1.80;;
15383;SDS011;7790;53.022;12.968;2023-12-29T19:32:04;2.47;;;1.77;;
15383;SDS011;7790;53.022;12.968;2023-12-29T19:36:10;1.80;;;1.70;;
15383;SDS011;7790;53.022;12.968;2023-12-29T19:40:15;1.87;;;1.30;;
15383;SDS011;7790;53.022;12.968;2023-12-29T19:44:16;2.00;;;1.57;;
15383;SDS011;7790;53.022;12.968;2023-12-29T19:48:17;2.40;;;1.67;;
15383;SDS011;7790;53.022;12.968;2023-12-29T19:52:18;2.43;;;1.83;;
15383;SDS011;7790;53.022;12.968;2023-12-29T19:56:24;2.50;;;1.87;;
15383;SDS011;7790;53.022;12.968;2023-12-29T20:00:26;3.37;;;2.07;;
15383;SDS011;7790;53.022;12.968;2023-12-29T20:04:27;3.17;;;1.93;;
15383;SDS011;7790;53.022;12.968;2023-12-29T20:08:28;2.40;;;1.80;;
15383;SDS011;7790;53.022;12.968;2023-12-29T20:12:31;2.50;;;1.87;;
15383;SDS011;7790;53.022;12.968;2023-12-29T20:16:32;3.37;;;2.03;;
15383;SDS011;7790;53.022;12.968;2023-12-29T20:20:33;2.93;;;1.73;;
15383;SDS011;7790;53.022;12.968;2023-12-29T20:24:39;2.60;;;2.00;;
15383;SDS011;7790;53.022;12.968;2023-12-29T20:28:41;3.50;;;1.77;;
15383;SDS011;7790;53.022;12.968;2023-12-29T20:32:42;2.10;;;1.70;;
15383;SDS011;7790;53.022;12.968;2023-12-29T20:36:42;2.00;;;1.40;;
15383;SDS011;7790;53.022;12.968;2023-12-29T20:40:43;2.67;;;2.03;;
15383;SDS011;7790;53.022;12.968;2023-12-29T20:44:44;2.83;;;1.80;;
15383;SDS011;7790;53.022;12.968;2023-12-29T20:48:48;2.77;;;1.60;;
15383;SDS011;7790;53.022;12.968;2023-12-29T20:52:50;2.03;;;1.77;;
15383;SDS011;7790;53.022;12.968;2023-12-29T20:56:50;2.23;;;1.57;;
15383;SDS011;7790;53.022;12.968;2023-12-29T21:00:51;3.57;;;1.57;;
15383;SDS011;7790;53.022;12.968;2023-12-29T21:04:52;2.20;;;1.73;;
15383;SDS011;7790;53.022;12.968;2023-12-29T21:08:53;1.90;;;1.70;;
15383;SDS011;7790;53.022;12.968;2023-12-29T21:12:58;1.73;;;1.30;;
15383;SDS011;7790;53.022;12.968;2023-12-29T21:16:59;4.47;;;1.63;;
15383;SDS011;7790;53.022;12.968;2023-12-29T21:21:00;2.80;;;1.30;;
15383;SDS011;7790;53.022;12.968;2023-12-29T21:25:00;2.47;;;1.50;;
15383;SDS011;7790;53.022;12.968;2023-12-29T21:29:02;1.57;;;1.43;;
15383;SDS011;7790;53.022;12.968;2023-12-29T21:33:04;9.33;;;1.60;;
15383;SDS011;7790;53.022;12.968;2023-12-29T21:37:05;5.10;;;2.47;;
15383;SDS011;7790;53.022;12.968;2023-12-29T21:41:05;18.20;;;5.90;;
15383;SDS011;7790;53.022;12.968;2023-12-29T21:45:06;17.63;;;6.10;;
15383;SDS011;7790;53.022;12.968;2023-12-29T21:49:10;15.97;;;6.23;;
15383;SDS011;7790;53.022;12.968;2023-12-29T21:53:11;14.17;;;5.40;;
15383;SDS011;7790;53.022;12.968;2023-12-29T21:57:11;12.70;;;5.00;;
15383;SDS011;7790;53.022;12.968;2023-12-29T22:01:25;16.80;;;5.10;;
15383;SDS011;7790;53.022;12.968;2023-12-29T22:05:26;11.53;;;4.60;;
15383;SDS011;7790;53.022;12.968;2023-12-29T22:09:27;11.70;;;4.67;;
15383;SDS011;7790;53.022;12.968;2023-12-29T22:13:28;11.87;;;4.33;;
15383;SDS011;7790;53.022;12.968;2023-12-29T22:17:29;15.93;;;4.93;;
15383;SDS011;7790;53.022;12.968;2023-12-29T22:21:30;12.33;;;4.37;;
15383;SDS011;7790;53.022;12.968;2023-12-29T22:25:31;10.73;;;3.83;;
15383;SDS011;7790;53.022;12.968;2023-12-29T22:29:32;7.40;;;3.93;;
15383;SDS011;7790;53.022;12.968;2023-12-29T22:33:33;9.53;;;3.67;;
15383;SDS011;7790;53.022;12.968;2023-12-29T22:37:35;7.53;;;3.70;;
15383;SDS011;7790;53.022;12.968;2023-12-29T22:41:36;15.23;;;3.83;;
15383;SDS011;7790;53.022;12.968;2023-12-29T22:45:37;8.53;;;3.27;;
15383;SDS011;7790;53.022;12.968;2023-12-29T22:49:38;8.77;;;3.27;;
15383;SDS011;7790;53.022;12.968;2023-12-29T22:53:39;11.17;;;3.10;;
15383;SDS011;7790;53.022;12.968;2023-12-29T22:57:41;10.70;;;3.50;;
15383;SDS011;7790;53.022;12.968;2023-12-29T23:01:42;5.30;;;3.00;;
15383;SDS011;7790;53.022;12.968;2023-12-29T23:05:45;12.93;;;2.60;;
15383;SDS011;7790;53.022;12.968;2023-12-29T23:09:47;8.93;;;2.70;;
15383;SDS011;7790;53.022;12.968;2023-12-29T23:13:47;5.23;;;2.63;;
15383;SDS011;7790;53.022;12.968;2023-12-29T23:17:48;9.50;;;2.50;;
15383;SDS011;7790;53.022;12.968;2023-12-29T23:21:50;6.50;;;2.40;;
15383;SDS011;7790;53.022;12.968;2023-12-29T23:25:51;6.83;;;2.53;;
15383;SDS011;7790;53.022;12.968;2023-12-29T23:29:53;5.30;;;2.17;;
15383;SDS011;7790;53.022;12.968;2023-12-29T23:33:54;5.67;;;2.47;;
15383;SDS011;7790;53.022;12.968;2023-12-29T23:37:56;6.43;;;2.30;;
15383;SDS011;7790;53.022;12.968;2023-12-29T23:41:57;5.27;;;2.20;;
15383;SDS011;7790;53.022;12.968;2023-12-29T23:45:58;4.07;;;2.23;;
15383;SDS011;7790;53.022;12.968;2023-12-29T23:49:59;5.30;;;2.10;;
15383;SDS011;7790;53.022;12.968;2023-12-29T23:54:00;6.17;;;2.30;;
15383;SDS011;7790;53.022;12.968;2023-12-29T23:58:01;4.87;;;1.97;;
